Terminal Aerodrome Forecast
Issued by NWS Melbourne, FL

Home | Current Version | Previous Version | Text Only | Print | Product List | Glossary On
Versions: 1 2 3 4 5 6 7 8 9 10 11 12
000
FTUS42 KMLB 202300
TAFVRB
TAF
KVRB 202320Z 2100/2124 15004KT P6SM FEW050 SCT090 BKN200
     FM210400 19003KT P6SM SCT060 OVC120
     FM211400 20004KT P6SM SCT025 BKN090=

USA.gov is the U.S. government's official web portal to all federal, state and local government web resources and services.